Time;durP1;ratioP1;P1;durP2;ratioP2;P2;SDS_P1;SDS_P2;PMS_P1;PMS_P2;Temp;Humidity;BMP_temperature;BMP_pressure;BME280_temperature;BME280_humidity;BME280_pressure;Samples;Min_cycle;Max_cycle;Signal;HPM_P1;HPM_P2
2021/07/13 00:00:49;;;;;;;5.83;4.60;;;20.40;99.90;;;;;;5057951;28;20190;-86
2021/07/13 00:03:15;;;;;;;4.80;4.43;;;20.40;99.90;;;;;;5057226;28;20169;-86
2021/07/13 00:05:41;;;;;;;5.13;4.60;;;20.40;99.90;;;;;;5057628;28;20162;-86
2021/07/13 00:08:07;;;;;;;5.30;4.90;;;20.30;99.90;;;;;;5058252;28;20187;-86
2021/07/13 00:10:39;;;;;;;4.90;4.50;;;20.30;99.90;;;;;;5056387;28;20208;-86
2021/07/13 00:13:05;;;;;;;6.03;3.70;;;20.30;99.90;;;;;;5062404;28;20416;-86
2021/07/13 00:15:35;;;;;;;4.13;3.83;;;20.30;99.90;;;;;;5062187;28;20730;-86
2021/07/13 00:18:02;;;;;;;5.73;4.73;;;20.20;99.90;;;;;;5062356;28;20440;-86
2021/07/13 00:20:28;;;;;;;4.60;4.23;;;20.20;99.90;;;;;;5061811;28;20395;-86
2021/07/13 00:22:55;;;;;;;5.30;4.80;;;20.20;99.90;;;;;;5061609;28;20396;-86
2021/07/13 00:25:20;;;;;;;4.97;4.50;;;20.20;99.90;;;;;;5061748;28;20191;-86
2021/07/13 00:27:47;;;;;;;5.90;5.03;;;20.10;99.90;;;;;;5061960;28;20401;-86
2021/07/13 00:30:15;;;;;;;4.77;4.37;;;20.20;99.90;;;;;;5061376;28;20282;-87
2021/07/13 00:32:41;;;;;;;6.10;4.57;;;20.20;99.90;;;;;;5060451;28;20419;-86
2021/07/13 00:35:08;;;;;;;4.60;4.20;;;20.20;99.90;;;;;;5060252;28;20494;-86
2021/07/13 00:37:34;;;;;;;5.03;4.53;;;20.20;99.90;;;;;;5061883;28;20225;-86
2021/07/13 00:39:59;;;;;;;5.70;5.20;;;20.20;99.90;;;;;;5061695;28;20445;-86
2021/07/13 00:42:26;;;;;;;4.23;3.90;;;20.20;99.90;;;;;;5061700;28;20603;-86
2021/07/13 00:44:51;;;;;;;5.07;4.67;;;20.10;99.90;;;;;;5062203;28;20163;-86
2021/07/13 00:47:19;;;;;;;5.73;5.23;;;20.10;99.90;;;;;;5061495;28;20482;-87
2021/07/13 00:49:46;;;;;;;6.10;5.60;;;20.00;99.90;;;;;;5061259;28;20192;-86
2021/07/13 00:52:12;;;;;;;5.00;4.50;;;20.00;99.90;;;;;;5066678;28;20391;-86
2021/07/13 00:54:40;;;;;;;4.60;4.20;;;20.00;99.90;;;;;;5065583;28;20411;-86
2021/07/13 00:57:10;;;;;;;6.20;5.60;;;20.00;99.90;;;;;;5065973;28;20482;-86
2021/07/13 00:59:37;;;;;;;4.07;3.77;;;20.00;99.90;;;;;;5044095;28;20390;-87
2021/07/13 01:02:04;;;;;;;5.30;4.80;;;20.00;99.90;;;;;;5061460;28;20485;-87
2021/07/13 01:04:31;;;;;;;5.33;4.50;;;20.00;99.90;;;;;;5060435;28;20883;-86
2021/07/13 01:07:04;;;;;;;4.73;4.43;;;19.90;99.90;;;;;;5060939;28;20959;-86
2021/07/13 01:10:01;;;;;;;4.80;4.33;;;20.00;99.90;;;;;;5059921;28;20450;-87
2021/07/13 01:13:01;;;;;;;4.53;4.23;;;19.90;99.90;;;;;;5060893;28;20406;-87
2021/07/13 01:15:32;;;;;;;4.90;4.30;;;19.90;99.90;;;;;;5061698;28;20428;-87
2021/07/13 01:18:04;;;;;;;7.47;4.63;;;19.90;99.90;;;;;;5062602;28;20399;-86
2021/07/13 01:20:52;;;;;;;4.67;4.33;;;19.90;99.90;;;;;;5062594;28;20477;-86
2021/07/13 01:23:43;;;;;;;5.03;4.53;;;19.80;99.90;;;;;;5065961;28;20436;-86
2021/07/13 01:26:29;;;;;;;5.03;4.67;;;19.80;99.90;;;;;;5076469;28;20399;-86
2021/07/13 01:29:00;;;;;;;6.20;4.67;;;19.80;99.90;;;;;;5066223;28;20924;-87
2021/07/13 01:31:27;;;;;;;4.90;4.50;;;19.80;99.90;;;;;;5063782;28;20486;-86
2021/07/13 01:34:00;;;;;;;5.10;4.70;;;19.70;99.90;;;;;;5061387;28;20387;-86
2021/07/13 01:36:30;;;;;;;5.47;4.73;;;19.80;99.90;;;;;;5059143;28;20387;-86
2021/07/13 01:38:59;;;;;;;4.60;4.30;;;19.80;99.90;;;;;;5059779;28;20504;-86
2021/07/13 01:41:27;;;;;;;4.90;4.50;;;19.80;99.90;;;;;;5060088;28;20404;-86
2021/07/13 01:43:54;;;;;;;4.50;4.20;;;19.80;99.90;;;;;;5059705;28;20398;-85
2021/07/13 01:46:22;;;;;;;4.73;4.30;;;19.80;99.90;;;;;;5059603;28;20484;-84
2021/07/13 01:48:51;;;;;;;4.33;4.03;;;19.80;99.90;;;;;;5058410;28;20911;-86
2021/07/13 01:51:19;;;;;;;5.17;4.77;;;19.80;99.90;;;;;;5059036;28;20394;-86
2021/07/13 01:53:46;;;;;;;4.97;4.67;;;19.70;99.90;;;;;;5059307;28;20906;-86
2021/07/13 01:56:13;;;;;;;4.97;4.57;;;19.70;99.90;;;;;;5041471;28;20395;-85
2021/07/13 01:58:40;;;;;;;5.37;4.70;;;19.70;99.90;;;;;;5058945;28;20437;-86
2021/07/13 02:01:12;;;;;;;7.07;5.50;;;19.70;99.90;;;;;;5058344;28;20390;-85
2021/07/13 02:03:40;;;;;;;4.50;4.10;;;19.70;99.90;;;;;;5056513;28;20401;-86
2021/07/13 02:06:07;;;;;;;5.00;4.50;;;19.60;99.90;;;;;;5057528;28;20874;-84
2021/07/13 02:08:38;;;;;;;6.40;5.80;;;19.70;99.90;;;;;;5057556;28;20462;-84
2021/07/13 02:11:07;;;;;;;5.03;4.57;;;19.60;99.90;;;;;;5056345;28;20397;-84
2021/07/13 02:13:33;;;;;;;9.60;5.03;;;19.70;99.90;;;;;;5057715;28;20395;-84
2021/07/13 02:15:59;;;;;;;5.73;4.83;;;19.70;99.90;;;;;;5056930;28;20391;-86
2021/07/13 02:18:26;;;;;;;5.10;4.60;;;19.60;99.90;;;;;;5057427;28;20752;-84
2021/07/13 02:20:53;;;;;;;4.67;4.27;;;19.60;99.90;;;;;;5057308;28;20398;-85
2021/07/13 02:23:19;;;;;;;5.37;4.87;;;19.60;99.90;;;;;;5057407;28;20806;-84
2021/07/13 02:25:48;;;;;;;4.17;3.87;;;19.60;99.90;;;;;;5066633;28;20398;-86
2021/07/13 02:28:31;;;;;;;4.47;4.17;;;19.60;99.90;;;;;;5059745;28;20243;-86
2021/07/13 02:31:02;;;;;;;4.83;4.43;;;19.50;99.90;;;;;;5059063;28;20924;-86
2021/07/13 02:33:36;;;;;;;4.63;4.30;;;19.60;99.90;;;;;;5059481;28;20438;-86
2021/07/13 02:36:08;;;;;;;5.60;5.20;;;19.60;99.90;;;;;;5059316;28;20403;-86
2021/07/13 02:38:34;;;;;;;5.03;4.40;;;19.60;99.90;;;;;;5058749;28;20527;-86
2021/07/13 02:41:01;;;;;;;4.60;4.17;;;19.50;99.90;;;;;;5059833;28;20422;-86
2021/07/13 02:43:29;;;;;;;5.30;4.90;;;19.50;99.90;;;;;;5060111;28;20387;-86
2021/07/13 02:45:55;;;;;;;5.70;5.20;;;19.40;99.90;;;;;;5060584;28;20394;-87
2021/07/13 02:48:22;;;;;;;5.83;5.43;;;19.40;99.90;;;;;;5064557;28;20391;-86
2021/07/13 02:50:52;;;;;;;4.93;4.50;;;19.40;99.90;;;;;;5072174;28;20391;-85
2021/07/13 02:53:19;;;;;;;5.13;4.73;;;19.40;99.90;;;;;;5071412;28;20449;-86
2021/07/13 02:55:47;;;;;;;5.30;4.90;;;19.40;99.90;;;;;;5077593;28;20375;-84
2021/07/13 02:58:14;;;;;;;7.97;4.83;;;19.40;99.90;;;;;;5078496;28;20405;-86
2021/07/13 03:00:40;;;;;;;5.13;4.73;;;19.40;99.90;;;;;;5078689;28;20482;-84
2021/07/13 03:03:08;;;;;;;4.33;3.93;;;19.40;99.90;;;;;;5074071;28;20419;-86
2021/07/13 03:05:34;;;;;;;4.73;4.43;;;19.40;99.90;;;;;;5059717;28;20478;-86
2021/07/13 03:08:02;;;;;;;6.00;4.73;;;19.50;99.90;;;;;;5057762;28;20453;-86
2021/07/13 03:10:30;;;;;;;7.33;5.10;;;19.40;99.90;;;;;;5059729;28;20430;-86
2021/07/13 03:12:56;;;;;;;5.20;4.80;;;19.40;99.90;;;;;;5059105;28;20409;-87
2021/07/13 03:15:25;;;;;;;5.60;5.10;;;19.40;99.90;;;;;;5056385;28;20407;-87
2021/07/13 03:17:53;;;;;;;4.70;4.30;;;19.40;99.90;;;;;;5058863;28;20390;-86
2021/07/13 03:20:20;;;;;;;10.13;5.47;;;19.40;99.90;;;;;;5057804;28;20450;-86
2021/07/13 03:22:48;;;;;;;5.10;4.70;;;19.40;99.90;;;;;;5059086;28;20395;-86
2021/07/13 03:25:18;;;;;;;5.00;4.60;;;19.40;99.90;;;;;;5058706;28;20569;-86
2021/07/13 03:27:47;;;;;;;5.23;4.83;;;19.40;99.90;;;;;;5058854;28;20390;-86
2021/07/13 03:30:14;;;;;;;4.93;4.53;;;19.40;99.90;;;;;;5058562;28;20406;-86
2021/07/13 03:32:40;;;;;;;6.27;5.07;;;19.30;99.90;;;;;;5058904;28;20399;-86
2021/07/13 03:35:07;;;;;;;5.70;5.17;;;19.30;99.90;;;;;;5058727;28;20402;-86
2021/07/13 03:37:34;;;;;;;7.70;4.50;;;19.30;99.90;;;;;;5058480;28;20398;-86
2021/07/13 03:40:01;;;;;;;5.20;4.80;;;19.40;99.90;;;;;;5059000;28;20446;-86
2021/07/13 03:42:27;;;;;;;7.47;6.90;;;19.40;99.90;;;;;;5058611;28;20477;-86
2021/07/13 03:44:52;;;;;;;5.07;4.60;;;19.40;99.90;;;;;;5057902;28;20395;-86
2021/07/13 03:47:19;;;;;;;4.37;4.07;;;19.40;99.90;;;;;;5057651;28;20444;-86
2021/07/13 03:49:48;;;;;;;4.90;4.50;;;19.40;99.90;;;;;;5058300;28;20210;-86
2021/07/13 03:52:14;;;;;;;4.13;3.80;;;19.40;99.90;;;;;;5057921;28;20754;-86
2021/07/13 03:54:40;;;;;;;5.53;5.03;;;19.40;99.90;;;;;;5057984;28;20401;-86
2021/07/13 03:57:07;;;;;;;8.47;5.87;;;19.40;99.90;;;;;;5058227;28;20426;-86
2021/07/13 03:59:34;;;;;;;5.70;4.70;;;19.40;99.90;;;;;;5057716;28;20435;-86
2021/07/13 04:02:00;;;;;;;5.03;4.63;;;19.40;99.90;;;;;;5057953;28;20654;-86
2021/07/13 04:04:26;;;;;;;5.80;4.90;;;19.40;99.90;;;;;;5058518;28;20394;-86
2021/07/13 04:06:52;;;;;;;5.20;4.80;;;19.50;99.90;;;;;;5057853;28;20393;-86
2021/07/13 04:09:18;;;;;;;5.03;4.63;;;19.50;99.90;;;;;;5057432;28;20286;-86
2021/07/13 04:11:44;;;;;;;5.40;4.47;;;19.50;99.90;;;;;;5057526;28;20164;-86
2021/07/13 04:14:10;;;;;;;5.13;4.73;;;19.50;99.90;;;;;;5058099;28;20755;-86
2021/07/13 04:16:36;;;;;;;5.87;5.27;;;19.60;99.90;;;;;;5058195;28;20477;-86
2021/07/13 04:19:04;;;;;;;8.53;5.63;;;19.50;99.90;;;;;;5056317;28;20862;-86
2021/07/13 04:21:30;;;;;;;7.80;6.00;;;19.50;99.90;;;;;;5057740;28;20510;-86
2021/07/13 04:23:56;;;;;;;5.97;5.40;;;19.40;99.90;;;;;;5057955;28;20386;-86
2021/07/13 04:26:22;;;;;;;5.40;4.90;;;19.40;99.90;;;;;;5058474;28;20160;-85
2021/07/13 04:28:48;;;;;;;5.73;5.23;;;19.40;99.90;;;;;;5057857;28;20462;-85
2021/07/13 04:31:14;;;;;;;9.00;5.70;;;19.40;99.90;;;;;;5058070;28;20433;-85
2021/07/13 04:33:40;;;;;;;5.40;4.90;;;19.40;99.90;;;;;;5056057;28;20176;-86
2021/07/13 04:36:06;;;;;;;5.30;4.80;;;19.40;99.90;;;;;;5058172;28;20409;-85
2021/07/13 04:38:32;;;;;;;5.27;4.27;;;19.30;99.90;;;;;;5057998;28;20676;-86
2021/07/13 04:40:58;;;;;;;5.37;4.87;;;19.30;99.90;;;;;;5057871;28;20210;-86
2021/07/13 04:43:23;;;;;;;4.90;4.50;;;19.30;99.90;;;;;;5057444;28;20210;-84
2021/07/13 04:45:49;;;;;;;5.80;5.30;;;19.30;99.90;;;;;;5057791;28;20251;-86
2021/07/13 04:48:15;;;;;;;4.87;4.47;;;19.30;99.90;;;;;;5056809;28;20160;-85
2021/07/13 04:50:41;;;;;;;6.73;5.27;;;19.30;99.90;;;;;;5057432;28;20195;-84
2021/07/13 04:53:07;;;;;;;6.43;5.87;;;19.30;99.90;;;;;;5058052;28;20168;-86
2021/07/13 04:55:33;;;;;;;5.80;5.33;;;19.30;99.90;;;;;;5058143;28;20160;-86
2021/07/13 04:57:59;;;;;;;4.37;4.07;;;19.20;99.90;;;;;;5057607;28;20171;-85
2021/07/13 05:00:25;;;;;;;7.63;4.80;;;19.20;99.90;;;;;;5061718;28;20789;-85
2021/07/13 05:02:51;;;;;;;4.80;4.40;;;19.30;99.90;;;;;;5060901;28;20387;-85
2021/07/13 05:05:17;;;;;;;5.40;4.90;;;19.20;99.90;;;;;;5061190;28;20573;-85
2021/07/13 05:07:45;;;;;;;4.73;4.20;;;19.20;99.90;;;;;;5061562;28;20156;-85
2021/07/13 05:10:13;;;;;;;10.20;4.30;;;19.30;99.90;;;;;;5061023;28;20394;-85
2021/07/13 05:12:40;;;;;;;6.60;4.73;;;19.30;99.90;;;;;;5060496;28;20820;-86
2021/07/13 05:15:09;;;;;;;5.10;4.70;;;19.40;99.90;;;;;;5060964;28;20448;-85
2021/07/13 05:17:36;;;;;;;4.90;3.90;;;19.40;99.90;;;;;;5059763;28;20419;-86
2021/07/13 05:20:05;;;;;;;7.70;4.90;;;19.40;99.90;;;;;;5061397;28;20434;-86
2021/07/13 05:22:31;;;;;;;7.50;5.20;;;19.50;99.90;;;;;;5060774;28;20437;-85
2021/07/13 05:24:57;;;;;;;12.40;6.10;;;19.50;99.90;;;;;;5077145;28;20406;-85
2021/07/13 05:27:24;;;;;;;5.90;5.30;;;19.50;99.90;;;;;;5069442;28;20179;-86
2021/07/13 05:29:50;;;;;;;6.23;5.47;;;19.60;99.90;;;;;;5060943;28;20160;-85
2021/07/13 05:32:16;;;;;;;12.37;5.10;;;19.60;99.90;;;;;;5070885;28;20410;-85
2021/07/13 05:34:43;;;;;;;5.03;4.53;;;19.70;99.90;;;;;;5064265;28;20429;-85
2021/07/13 05:37:10;;;;;;;5.03;4.63;;;19.70;99.90;;;;;;5061052;28;20172;-86
2021/07/13 05:39:36;;;;;;;5.60;5.10;;;19.80;99.90;;;;;;5061159;28;20477;-85
2021/07/13 05:42:03;;;;;;;4.80;4.40;;;19.90;99.90;;;;;;5047350;28;20567;-85
2021/07/13 05:44:29;;;;;;;6.47;5.90;;;20.00;99.90;;;;;;5077312;28;20240;-84
2021/07/13 05:46:55;;;;;;;5.07;4.57;;;20.00;99.90;;;;;;5077623;28;20441;-82
2021/07/13 05:49:21;;;;;;;5.00;4.43;;;20.10;99.90;;;;;;5075137;28;20241;-84
2021/07/13 05:51:47;;;;;;;5.60;4.80;;;20.10;99.90;;;;;;5060720;28;20190;-85
2021/07/13 05:54:13;;;;;;;11.30;4.57;;;20.20;99.90;;;;;;5077412;28;20476;-84
2021/07/13 05:56:39;;;;;;;5.40;4.90;;;20.20;99.90;;;;;;5061472;28;20492;-84
2021/07/13 05:59:05;;;;;;;5.30;4.90;;;20.30;99.90;;;;;;5077455;28;20605;-83
2021/07/13 06:01:31;;;;;;;6.03;5.27;;;20.30;99.90;;;;;;5077091;28;20191;-84
2021/07/13 06:03:57;;;;;;;7.80;4.57;;;20.40;99.90;;;;;;5062039;28;20423;-84
2021/07/13 06:06:23;;;;;;;4.63;4.23;;;20.50;99.90;;;;;;5060247;28;20491;-84
2021/07/13 06:08:48;;;;;;;6.47;4.70;;;20.50;99.90;;;;;;5045279;28;20208;-84
2021/07/13 06:11:14;;;;;;;4.60;4.20;;;20.60;99.90;;;;;;5058970;28;20241;-84
2021/07/13 06:13:40;;;;;;;5.53;5.00;;;20.60;99.90;;;;;;5057780;28;20190;-84
2021/07/13 06:16:06;;;;;;;4.70;4.30;;;20.60;99.90;;;;;;5077658;28;20188;-85
2021/07/13 06:18:32;;;;;;;4.93;4.50;;;20.70;99.90;;;;;;5070340;28;20163;-84
2021/07/13 06:20:58;;;;;;;12.23;5.20;;;20.80;99.90;;;;;;5083868;28;20432;-85
2021/07/13 06:23:24;;;;;;;4.47;4.10;;;20.80;99.90;;;;;;5063472;28;20232;-85
2021/07/13 06:25:55;;;;;;;4.83;4.53;;;20.80;99.90;;;;;;5059550;28;20212;-85
2021/07/13 06:28:21;;;;;;;5.23;4.40;;;20.80;99.90;;;;;;5042872;28;20172;-84
2021/07/13 06:30:47;;;;;;;6.03;5.07;;;20.90;99.90;;;;;;5060089;28;20482;-85
2021/07/13 06:33:14;;;;;;;4.90;4.50;;;20.90;99.90;;;;;;5061964;28;20195;-85
2021/07/13 06:35:43;;;;;;;4.60;4.23;;;21.00;99.90;;;;;;5062492;28;20183;-85
2021/07/13 06:38:08;;;;;;;5.30;4.73;;;21.10;99.90;;;;;;5081876;28;20469;-84
2021/07/13 06:40:34;;;;;;;7.93;4.80;;;21.10;99.90;;;;;;5064451;28;20489;-84
2021/07/13 06:43:00;;;;;;;6.13;4.03;;;21.10;99.90;;;;;;5065410;28;20178;-85
2021/07/13 06:45:26;;;;;;;4.73;4.33;;;21.20;99.90;;;;;;5060957;28;20171;-84
2021/07/13 06:47:54;;;;;;;3.73;3.43;;;21.20;99.90;;;;;;5065813;28;20171;-84
2021/07/13 06:50:22;;;;;;;5.30;4.23;;;21.30;99.90;;;;;;5070287;28;20502;-85
2021/07/13 06:52:49;;;;;;;3.93;3.63;;;21.40;99.90;;;;;;5080554;28;20405;-86
2021/07/13 06:55:15;;;;;;;3.67;3.47;;;21.40;99.90;;;;;;5080060;28;20418;-85
2021/07/13 06:57:40;;;;;;;4.60;4.20;;;21.50;99.90;;;;;;5083664;28;20457;-84
2021/07/13 07:00:09;;;;;;;4.20;3.90;;;21.50;99.90;;;;;;5067129;28;20579;-84
2021/07/13 07:02:35;;;;;;;4.80;4.40;;;21.70;99.90;;;;;;5070814;28;20163;-86
2021/07/13 07:05:01;;;;;;;4.10;3.80;;;21.70;99.90;;;;;;5089356;28;20421;-86
2021/07/13 07:07:27;;;;;;;4.60;4.20;;;21.70;99.90;;;;;;5079557;28;20425;-84
2021/07/13 07:09:53;;;;;;;5.80;4.43;;;21.70;99.90;;;;;;5084004;28;20187;-86
2021/07/13 07:12:18;;;;;;;7.60;4.73;;;21.80;99.90;;;;;;5073388;28;20183;-86
2021/07/13 07:14:44;;;;;;;7.10;4.73;;;21.90;99.90;;;;;;5079183;28;20172;-85
2021/07/13 07:17:10;;;;;;;6.40;4.73;;;21.90;99.90;;;;;;5079319;28;20182;-85
2021/07/13 07:19:36;;;;;;;6.27;4.60;;;22.00;99.90;;;;;;5073617;28;20278;-85
2021/07/13 07:22:02;;;;;;;5.33;4.50;;;22.00;99.90;;;;;;5073470;28;20172;-85
2021/07/13 07:24:27;;;;;;;11.13;4.50;;;22.00;99.90;;;;;;5065937;28;20639;-85
2021/07/13 07:26:53;;;;;;;4.73;4.17;;;22.10;99.90;;;;;;5067113;28;20175;-85
2021/07/13 07:29:19;;;;;;;5.13;3.77;;;22.10;99.90;;;;;;5063191;28;20204;-83
2021/07/13 07:31:45;;;;;;;5.07;4.57;;;22.10;99.90;;;;;;5068941;28;20176;-85
2021/07/13 07:34:10;;;;;;;5.47;4.43;;;22.00;99.90;;;;;;5079312;28;20185;-85
2021/07/13 07:36:36;;;;;;;5.60;4.20;;;22.10;99.90;;;;;;5079423;28;20168;-85
2021/07/13 07:39:03;;;;;;;5.23;4.77;;;22.20;99.90;;;;;;5070406;28;20229;-85
2021/07/13 07:41:31;;;;;;;5.87;5.30;;;22.30;99.90;;;;;;5086573;28;20213;-85
2021/07/13 07:43:56;;;;;;;4.80;4.27;;;22.30;99.90;;;;;;5067702;28;20430;-85
2021/07/13 07:46:22;;;;;;;7.17;5.07;;;22.30;99.90;;;;;;5086952;28;20238;-85
2021/07/13 07:48:48;;;;;;;6.10;4.33;;;22.40;99.90;;;;;;5085076;28;20167;-84
2021/07/13 07:51:14;;;;;;;4.60;4.20;;;22.40;99.90;;;;;;5078429;28;20175;-84
2021/07/13 07:53:41;;;;;;;4.67;4.27;;;22.50;99.90;;;;;;5073146;28;20170;-83
2021/07/13 07:56:07;;;;;;;3.97;3.67;;;22.40;99.90;;;;;;5072157;28;20430;-85
2021/07/13 07:58:33;;;;;;;4.57;3.90;;;22.60;99.90;;;;;;5072304;28;20406;-85
2021/07/13 08:01:00;;;;;;;6.30;4.53;;;22.70;99.90;;;;;;5072829;28;20510;-83
2021/07/13 08:03:25;;;;;;;5.80;4.60;;;22.60;99.90;;;;;;5067720;28;20176;-84
2021/07/13 08:05:55;;;;;;;5.40;3.90;;;22.70;99.90;;;;;;5077967;28;20468;-85
2021/07/13 08:08:21;;;;;;;4.97;4.50;;;22.60;99.90;;;;;;5086938;28;20200;-85
2021/07/13 08:10:48;;;;;;;4.57;4.17;;;22.70;99.90;;;;;;5087046;28;20436;-84
2021/07/13 08:13:13;;;;;;;5.53;4.57;;;22.70;99.90;;;;;;5092909;28;20410;-84
2021/07/13 08:15:39;;;;;;;5.33;4.20;;;22.80;99.90;;;;;;5078870;28;20427;-85
2021/07/13 08:18:05;;;;;;;4.80;4.43;;;22.80;99.90;;;;;;5072503;28;20164;-83
2021/07/13 08:20:31;;;;;;;5.93;5.47;;;22.90;99.90;;;;;;5073537;28;20187;-84
2021/07/13 08:22:58;;;;;;;5.40;4.50;;;23.00;99.90;;;;;;5093157;28;20160;-85
2021/07/13 08:25:24;;;;;;;5.23;4.10;;;23.10;99.90;;;;;;5089005;28;20183;-84
2021/07/13 08:27:50;;;;;;;4.93;3.70;;;23.10;99.90;;;;;;5089794;28;20413;-84
2021/07/13 08:30:16;;;;;;;4.13;3.70;;;23.20;99.90;;;;;;5092851;28;20171;-84
2021/07/13 08:32:42;;;;;;;5.13;4.73;;;23.20;99.90;;;;;;5083444;28;20191;-83
2021/07/13 08:35:09;;;;;;;4.53;4.13;;;23.30;99.90;;;;;;5096031;28;20398;-83
2021/07/13 08:37:35;;;;;;;5.30;4.80;;;23.40;99.90;;;;;;5089375;28;20430;-84
2021/07/13 08:40:04;;;;;;;4.73;4.33;;;23.40;99.90;;;;;;5075702;28;20434;-84
2021/07/13 08:42:49;;;;;;;4.00;3.70;;;23.50;99.90;;;;;;5081487;28;20425;-84
2021/07/13 08:45:18;;;;;;;5.23;4.83;;;23.60;99.90;;;;;;5075843;28;20497;-84
2021/07/13 08:47:45;;;;;;;7.63;4.60;;;23.70;99.90;;;;;;5074977;28;20192;-85
2021/07/13 08:50:13;;;;;;;5.20;4.40;;;23.80;99.90;;;;;;5061491;28;20512;-85
2021/07/13 08:52:39;;;;;;;7.93;4.73;;;23.80;99.90;;;;;;5085203;28;20410;-85
2021/07/13 08:55:08;;;;;;;5.43;4.93;;;23.90;99.90;;;;;;5075456;28;20426;-83
2021/07/13 08:57:34;;;;;;;4.40;4.00;;;24.00;99.90;;;;;;5067740;28;20472;-87
2021/07/13 09:00:00;;;;;;;6.67;4.63;;;24.20;99.90;;;;;;5068034;28;20438;-84
2021/07/13 09:02:26;;;;;;;4.90;4.50;;;24.30;99.90;;;;;;5057108;28;20187;-85
2021/07/13 09:04:52;;;;;;;6.73;5.40;;;24.50;99.90;;;;;;5067573;28;20425;-83
2021/07/13 09:07:18;;;;;;;5.27;4.87;;;24.60;99.90;;;;;;5075604;28;20180;-83
2021/07/13 09:09:47;;;;;;;5.33;4.93;;;24.60;99.90;;;;;;5073990;28;20431;-84
2021/07/13 09:12:16;;;;;;;5.60;4.37;;;24.70;99.90;;;;;;5075866;28;20421;-85
2021/07/13 09:14:57;;;;;;;5.37;4.97;;;25.00;99.90;;;;;;5088874;28;20437;-84
2021/07/13 09:17:37;;;;;;;13.30;4.60;;;25.20;99.90;;;;;;5091888;28;20424;-85
2021/07/13 09:20:17;;;;;;;5.57;3.93;;;25.40;99.90;;;;;;5076935;28;20494;-85
2021/07/13 09:22:58;;;;;;;10.33;5.87;;;25.50;99.90;;;;;;5083736;28;20418;-84
2021/07/13 09:25:34;;;;;;;4.23;4.03;;;25.50;99.90;;;;;;5096389;28;20401;-85
2021/07/13 09:28:19;;;;;;;6.03;5.57;;;25.10;99.90;;;;;;5091812;28;20491;-84
2021/07/13 09:30:47;;;;;;;5.57;5.07;;;25.20;99.90;;;;;;5082824;28;20417;-85
2021/07/13 09:33:17;;;;;;;5.47;5.03;;;25.40;99.90;;;;;;5081072;28;20414;-83
2021/07/13 09:36:00;;;;;;;6.13;5.53;;;25.50;99.90;;;;;;5094944;28;20436;-84
2021/07/13 09:38:28;;;;;;;6.67;6.07;;;25.70;99.90;;;;;;5072967;28;20792;-85
2021/07/13 09:41:14;;;;;;;7.53;6.63;;;25.60;99.90;;;;;;5079439;28;20476;-85
2021/07/13 09:43:43;;;;;;;5.80;5.33;;;25.60;99.90;;;;;;5076471;28;20398;-86
2021/07/13 09:46:30;;;;;;;6.20;5.70;;;25.50;99.90;;;;;;5074677;28;20407;-85
2021/07/13 09:49:10;;;;;;;6.40;5.90;;;25.50;99.90;;;;;;5083517;28;20421;-85
2021/07/13 09:51:38;;;;;;;5.40;4.90;;;25.50;99.90;;;;;;5074376;28;20418;-85
2021/07/13 09:54:24;;;;;;;6.40;5.87;;;25.50;99.90;;;;;;5068863;28;20395;-85
2021/07/13 09:56:50;;;;;;;6.37;5.87;;;25.70;99.90;;;;;;5076220;28;20425;-86
2021/07/13 09:59:17;;;;;;;5.93;5.37;;;25.40;99.90;;;;;;5089069;28;20531;-84
2021/07/13 10:01:44;;;;;;;7.20;6.20;;;26.00;99.90;;;;;;5070097;28;20188;-85
2021/07/13 10:04:11;;;;;;;5.60;5.20;;;25.90;99.90;;;;;;5074181;28;20417;-85
2021/07/13 10:06:39;;;;;;;7.40;6.60;;;25.20;99.90;;;;;;5087101;28;20428;-85
2021/07/13 10:09:11;;;;;;;6.00;5.43;;;25.50;99.90;;;;;;5086123;28;20450;-85
2021/07/13 10:11:39;;;;;;;6.37;5.77;;;25.80;99.90;;;;;;5085682;28;20424;-85
2021/07/13 10:14:08;;;;;;;6.37;5.77;;;25.80;99.90;;;;;;5069092;28;20513;-85
2021/07/13 10:16:34;;;;;;;6.50;5.70;;;25.60;99.90;;;;;;5068226;28;20431;-85
2021/07/13 10:19:00;;;;;;;6.90;6.20;;;25.70;99.90;;;;;;5069139;28;20564;-85
2021/07/13 10:21:38;;;;;;;6.40;5.27;;;25.90;99.90;;;;;;5067754;28;20217;-85
2021/07/13 10:24:05;;;;;;;6.70;6.10;;;26.00;99.90;;;;;;5055213;28;20405;-85
2021/07/13 10:26:50;;;;;;;7.30;5.67;;;26.30;99.90;;;;;;5090001;28;20473;-85
2021/07/13 10:29:36;;;;;;;6.60;5.83;;;26.70;99.90;;;;;;5087873;28;20441;-85
2021/07/13 10:32:07;;;;;;;5.40;5.00;;;27.00;99.90;;;;;;5083817;28;20413;-85
2021/07/13 10:34:53;;;;;;;6.30;5.80;;;27.30;99.90;;;;;;5085916;28;20409;-85
2021/07/13 10:37:33;;;;;;;5.63;4.83;;;27.20;99.90;;;;;;5077196;28;20417;-85
2021/07/13 10:40:35;;;;;;;5.70;5.20;;;27.00;99.90;;;;;;5077167;28;20465;-85
2021/07/13 10:43:03;;;;;;;6.93;5.87;;;26.80;99.90;;;;;;5080393;28;20422;-86
2021/07/13 10:45:33;;;;;;;6.27;5.27;;;26.70;99.90;;;;;;5084838;28;20397;-86
2021/07/13 10:48:09;;;;;;;6.37;5.83;;;26.60;99.90;;;;;;5085492;28;20425;-86
2021/07/13 10:50:38;;;;;;;6.10;5.50;;;26.50;99.90;;;;;;5073218;28;20418;-85
2021/07/13 10:53:14;;;;;;;5.83;5.33;;;26.20;99.90;;;;;;5066428;28;20409;-86
2021/07/13 10:55:47;;;;;;;6.70;6.10;;;26.40;99.90;;;;;;5067241;28;20425;-86
2021/07/13 10:58:26;;;;;;;6.10;5.70;;;26.50;99.90;;;;;;5068242;28;20426;-86
2021/07/13 11:01:14;;;;;;;5.10;4.80;;;26.50;99.90;;;;;;5058920;28;20556;-86
2021/07/13 11:04:03;;;;;;;7.00;6.07;;;26.50;99.90;;;;;;5086888;28;20397;-86
2021/07/13 11:06:47;;;;;;;6.87;6.30;;;26.50;99.90;;;;;;5085446;28;20421;-86
2021/07/13 11:09:20;;;;;;;6.20;5.70;;;26.70;99.90;;;;;;5082828;28;20841;-85
2021/07/13 11:11:47;;;;;;;6.27;5.70;;;26.80;99.90;;;;;;5070706;28;20894;-86
2021/07/13 11:14:15;;;;;;;5.37;4.97;;;26.90;99.90;;;;;;5066449;28;20428;-85
2021/07/13 11:16:43;;;;;;;6.67;6.13;;;27.00;99.90;;;;;;5046776;28;20437;-86
2021/07/13 11:19:12;;;;;;;7.30;5.60;;;27.10;99.90;;;;;;5064575;28;20504;-85
2021/07/13 11:21:41;;;;;;;7.23;6.43;;;27.50;99.90;;;;;;5068243;28;20410;-86
2021/07/13 11:24:13;;;;;;;7.43;6.73;;;27.80;99.90;;;;;;5066886;28;20398;-86
2021/07/13 11:26:43;;;;;;;7.03;6.33;;;28.00;99.90;;;;;;5065484;28;20471;-86
2021/07/13 11:29:16;;;;;;;5.90;5.40;;;28.30;99.90;;;;;;5065608;28;20402;-86
2021/07/13 11:31:47;;;;;;;5.97;5.47;;;28.20;99.90;;;;;;5082725;28;20423;-86
2021/07/13 11:34:15;;;;;;;6.80;6.30;;;28.50;99.90;;;;;;5067649;28;20984;-85
2021/07/13 11:36:45;;;;;;;7.60;7.10;;;27.60;99.90;;;;;;5066987;28;20422;-84
2021/07/13 11:39:17;;;;;;;9.33;7.03;;;28.20;99.90;;;;;;5065175;28;20458;-85
2021/07/13 11:41:43;;;;;;;6.60;6.10;;;28.50;99.90;;;;;;5082835;28;20427;-85
2021/07/13 11:44:11;;;;;;;7.43;6.63;;;29.00;99.90;;;;;;5083303;28;20413;-84
2021/07/13 11:46:42;;;;;;;7.03;6.53;;;29.10;99.90;;;;;;5071849;28;20176;-83
2021/07/13 11:49:11;;;;;;;8.20;6.13;;;29.30;99.90;;;;;;5068442;28;20808;-84
2021/07/13 11:51:53;;;;;;;7.60;6.90;;;29.30;99.90;;;;;;5067389;28;20397;-83
2021/07/13 11:54:22;;;;;;;6.90;6.40;;;28.50;99.90;;;;;;5064447;28;20421;-84
2021/07/13 11:56:53;;;;;;;7.00;6.50;;;28.20;99.90;;;;;;5080931;28;20500;-84
2021/07/13 11:59:23;;;;;;;7.33;6.40;;;28.00;99.90;;;;;;5083339;28;20405;-84
2021/07/13 12:01:54;;;;;;;12.03;6.80;;;27.70;99.90;;;;;;5085692;28;20388;-84
2021/07/13 12:04:21;;;;;;;7.80;7.00;;;27.60;99.90;;;;;;5066383;28;20417;-84
2021/07/13 12:06:51;;;;;;;5.97;5.47;;;27.50;99.90;;;;;;5063896;28;20412;-83
2021/07/13 12:09:23;;;;;;;7.60;6.80;;;27.50;99.90;;;;;;5089139;28;20464;-85
2021/07/13 12:11:51;;;;;;;6.80;6.30;;;27.40;99.90;;;;;;5088304;28;20426;-86
2021/07/13 12:14:21;;;;;;;6.80;6.20;;;27.40;99.90;;;;;;5090226;28;20879;-86
2021/07/13 12:16:47;;;;;;;7.57;6.90;;;27.50;99.90;;;;;;5089411;28;20388;-85
2021/07/13 12:19:16;;;;;;;8.17;7.53;;;27.60;99.90;;;;;;5088626;28;20464;-85
2021/07/13 12:21:50;;;;;;;7.37;6.67;;;27.70;99.90;;;;;;5088905;28;20425;-83
2021/07/13 12:24:19;;;;;;;6.73;6.33;;;27.40;99.90;;;;;;5086505;28;20404;-84
2021/07/13 12:26:50;;;;;;;6.83;6.33;;;26.40;99.90;;;;;;5086858;28;20392;-84
2021/07/13 12:29:19;;;;;;;6.80;5.67;;;26.50;99.90;;;;;;5087918;28;20437;-85
2021/07/13 12:31:55;;;;;;;7.37;6.77;;;26.80;99.90;;;;;;5087363;28;20496;-84
2021/07/13 12:34:39;;;;;;;12.00;7.27;;;26.90;99.90;;;;;;5088119;28;20830;-84
2021/07/13 12:37:10;;;;;;;7.03;6.43;;;26.90;99.90;;;;;;5089524;28;20400;-84
2021/07/13 12:39:39;;;;;;;7.47;6.77;;;26.80;99.90;;;;;;5089388;28;20452;-84
2021/07/13 12:42:12;;;;;;;7.27;6.77;;;26.80;99.90;;;;;;5087157;28;20397;-84
2021/07/13 12:44:44;;;;;;;7.20;6.47;;;26.80;99.90;;;;;;5088174;28;20409;-84
2021/07/13 12:47:16;;;;;;;7.23;6.53;;;26.80;99.90;;;;;;5089349;28;20401;-84
2021/07/13 12:50:04;;;;;;;8.60;6.83;;;26.70;99.90;;;;;;5088476;28;20479;-84
2021/07/13 12:52:53;;;;;;;6.90;6.40;;;26.70;99.90;;;;;;5086771;28;20405;-84
2021/07/13 12:55:27;;;;;;;7.67;6.93;;;26.60;99.90;;;;;;5073567;28;20431;-84